createdAt,value
2022-10-17T00:00:52.367Z,13.20
2022-10-17T00:03:19.457Z,12.73
2022-10-17T00:05:51.064Z,12.75
2022-10-17T00:08:19.221Z,13.68
2022-10-17T00:10:46.573Z,12.80
2022-10-17T00:13:15.569Z,12.82
2022-10-17T00:15:44.700Z,12.93
2022-10-17T00:18:11.405Z,13.65
2022-10-17T00:20:38.079Z,12.30
2022-10-17T00:23:06.993Z,12.77
2022-10-17T00:25:33.761Z,12.73
2022-10-17T00:28:00.473Z,12.55
2022-10-17T00:30:27.191Z,11.77
2022-10-17T00:32:53.832Z,12.05
2022-10-17T00:35:20.694Z,12.20
2022-10-17T00:37:48.459Z,12.40
2022-10-17T00:40:17.471Z,12.63
2022-10-17T00:42:47.010Z,12.70
2022-10-17T00:45:23.695Z,12.35
2022-10-17T00:48:01.550Z,10.95
2022-10-17T00:50:30.950Z,12.45
2022-10-17T00:53:01.544Z,12.65
2022-10-17T00:55:32.068Z,12.50
2022-10-17T00:58:00.910Z,11.73
2022-10-17T01:00:27.572Z,11.10
2022-10-17T01:02:54.381Z,11.82
2022-10-17T01:05:24.693Z,12.10
2022-10-17T01:07:55.355Z,11.07
2022-10-17T01:10:28.088Z,11.38
2022-10-17T01:13:21.027Z,11.73
2022-10-17T01:16:16.420Z,12.88
2022-10-17T01:19:18.859Z,12.05
2022-10-17T01:21:54.808Z,11.73
2022-10-17T01:24:56.904Z,11.05
2022-10-17T01:27:27.139Z,10.88
2022-10-17T01:30:22.288Z,10.60
2022-10-17T01:32:55.382Z,11.32
2022-10-17T01:35:39.953Z,11.23
2022-10-17T01:38:21.786Z,10.70
2022-10-17T01:41:01.421Z,10.80
2022-10-17T01:43:51.625Z,11.50
2022-10-17T01:46:32.954Z,10.95
2022-10-17T01:49:03.358Z,10.57
2022-10-17T01:51:43.988Z,11.48
2022-10-17T01:54:28.589Z,10.73
2022-10-17T01:57:01.949Z,11.13
2022-10-17T01:59:43.889Z,11.30
2022-10-17T02:02:14.744Z,11.73
2022-10-17T02:04:46.147Z,10.30
2022-10-17T02:07:13.359Z,10.50
2022-10-17T02:09:40.638Z,10.55
2022-10-17T02:12:31.714Z,10.80
2022-10-17T02:15:10.479Z,10.60
2022-10-17T02:18:14.983Z,10.88
2022-10-17T02:21:08.940Z,10.85
2022-10-17T02:24:00.874Z,11.00
2022-10-17T02:26:55.318Z,11.13
2022-10-17T02:29:29.994Z,10.63
2022-10-17T02:32:05.887Z,10.75
2022-10-17T02:34:48.427Z,11.35
2022-10-17T02:37:17.300Z,10.18
2022-10-17T02:39:44.210Z,11.32
2022-10-17T02:44:44.189Z,10.85
2022-10-17T02:47:14.014Z,10.35
2022-10-17T02:49:47.891Z,10.55
2022-10-17T02:52:32.938Z,10.88
2022-10-17T02:55:21.494Z,9.80
2022-10-17T02:58:12.575Z,10.40
2022-10-17T03:00:40.944Z,9.75
2022-10-17T03:03:26.109Z,10.73
2022-10-17T03:05:55.187Z,10.25
2022-10-17T03:08:24.768Z,10.30
2022-10-17T03:10:55.714Z,10.00
2022-10-17T03:13:23.029Z,10.82
2022-10-17T03:15:50.100Z,9.70
2022-10-17T03:18:16.899Z,10.25
2022-10-17T03:20:44.979Z,10.35
2022-10-17T03:23:14.067Z,10.43
2022-10-17T03:25:40.959Z,10.35
2022-10-17T03:28:08.398Z,10.20
2022-10-17T03:30:35.148Z,10.77
2022-10-17T03:33:02.560Z,9.98
2022-10-17T03:35:29.289Z,10.02
2022-10-17T03:37:56.796Z,9.90
2022-10-17T03:42:55.184Z,11.30
2022-10-17T03:45:21.917Z,9.77
2022-10-17T03:47:51.346Z,9.93
2022-10-17T03:50:23.138Z,10.10
2022-10-17T03:52:49.984Z,9.57
2022-10-17T03:55:19.448Z,10.70
2022-10-17T04:00:17.167Z,10.38
2022-10-17T04:02:54.702Z,10.52
2022-10-17T04:05:23.855Z,10.18
2022-10-17T04:07:53.122Z,9.52
2022-10-17T04:10:27.834Z,10.02
2022-10-17T04:12:56.766Z,9.05
2022-10-17T04:15:23.682Z,9.50
2022-10-17T04:17:50.417Z,9.63
2022-10-17T04:20:19.482Z,10.13
2022-10-17T04:22:46.246Z,9.73
2022-10-17T04:25:13.748Z,9.75
2022-10-17T04:27:43.922Z,9.05
2022-10-17T04:30:13.187Z,9.30
2022-10-17T04:32:41.255Z,9.70
2022-10-17T04:35:21.884Z,9.52
2022-10-17T04:37:57.353Z,9.15
2022-10-17T04:40:27.360Z,9.98
2022-10-17T04:42:55.234Z,9.65
2022-10-17T04:45:31.279Z,8.65
2022-10-17T04:48:04.693Z,9.65
2022-10-17T04:53:27.152Z,9.80
2022-10-17T04:55:57.171Z,9.43
2022-10-17T04:58:30.811Z,8.95
2022-10-17T05:00:57.609Z,9.23
2022-10-17T05:03:28.194Z,9.75
2022-10-17T05:05:54.972Z,9.95
2022-10-17T05:08:27.108Z,11.90
2022-10-17T05:10:54.022Z,9.40
2022-10-17T05:13:25.710Z,9.52
2022-10-17T05:15:54.755Z,10.70
2022-10-17T05:18:24.503Z,10.32
2022-10-17T05:20:54.395Z,9.75
2022-10-17T05:23:21.625Z,9.18
2022-10-17T05:25:54.886Z,10.32
2022-10-17T05:28:24.227Z,9.85
2022-10-17T05:30:52.145Z,10.13
2022-10-17T05:33:18.886Z,9.75
2022-10-17T05:35:45.613Z,10.05
2022-10-17T05:38:15.825Z,10.45
2022-10-17T05:40:44.873Z,10.35
2022-10-17T05:43:16.801Z,9.52
2022-10-17T05:45:47.629Z,9.98
2022-10-17T05:48:19.024Z,9.35
2022-10-17T05:50:50.253Z,10.25
2022-10-17T05:53:17.344Z,10.90
2022-10-17T05:55:55.954Z,10.13
2022-10-17T05:58:45.499Z,9.00
2022-10-17T06:01:15.186Z,10.95
2022-10-17T06:03:44.189Z,11.38
2022-10-17T06:06:14.543Z,10.25
2022-10-17T06:08:44.068Z,10.27
2022-10-17T06:11:17.157Z,10.68
2022-10-17T06:16:19.345Z,9.85
2022-10-17T06:18:46.106Z,10.13
2022-10-17T06:21:17.965Z,10.00
2022-10-17T06:23:50.910Z,9.70
2022-10-17T06:26:24.967Z,10.27
2022-10-17T06:28:52.195Z,10.88
2022-10-17T06:31:18.983Z,10.40
2022-10-17T06:33:46.009Z,10.15
2022-10-17T06:36:14.402Z,12.18
2022-10-17T06:38:44.451Z,10.77
2022-10-17T06:41:20.997Z,11.95
2022-10-17T06:43:51.147Z,11.10
2022-10-17T06:46:45.104Z,11.85
2022-10-17T06:49:17.943Z,11.13
2022-10-17T06:51:50.706Z,11.50
2022-10-17T06:54:24.133Z,12.13
2022-10-17T06:57:09.413Z,10.05
2022-10-17T06:59:59.297Z,10.65
2022-10-17T07:02:35.795Z,10.43
2022-10-17T07:05:02.644Z,11.30
2022-10-17T07:07:32.620Z,10.52
2022-10-17T07:09:59.795Z,10.48
2022-10-17T07:12:26.604Z,11.25
2022-10-17T07:14:53.317Z,11.38
2022-10-17T07:17:22.258Z,11.77
2022-10-17T07:22:20.946Z,11.43
2022-10-17T07:24:52.052Z,11.40
2022-10-17T07:27:26.361Z,11.20
2022-10-17T07:29:55.486Z,11.05
2022-10-17T07:32:55.561Z,13.50
2022-10-17T07:35:24.705Z,12.05
2022-10-17T07:40:24.826Z,11.03
2022-10-17T07:42:56.382Z,10.60
2022-10-17T07:45:27.163Z,10.93
2022-10-17T07:47:57.962Z,10.00
2022-10-17T07:50:25.432Z,10.65
2022-10-17T07:52:52.275Z,10.15
2022-10-17T07:55:19.015Z,10.52
2022-10-17T07:57:50.562Z,11.18
2022-10-17T08:02:46.172Z,11.65
2022-10-17T08:05:16.251Z,12.15
2022-10-17T08:07:43.022Z,11.10
2022-10-17T08:10:16.210Z,11.07
2022-10-17T08:12:47.106Z,11.43
2022-10-17T08:15:13.815Z,11.30
2022-10-17T08:17:40.497Z,11.52
2022-10-17T08:20:07.751Z,13.75
2022-10-17T08:22:36.990Z,11.40
2022-10-17T08:27:35.766Z,13.00
2022-10-17T08:30:07.501Z,11.07
2022-10-17T08:32:36.588Z,11.65
2022-10-17T08:35:03.371Z,11.00
2022-10-17T08:37:34.784Z,10.73
2022-10-17T08:40:01.493Z,11.15
2022-10-17T08:42:54.348Z,11.85
2022-10-17T08:45:34.708Z,11.05
2022-10-17T08:48:06.216Z,11.80
2022-10-17T08:50:35.628Z,11.10
2022-10-17T08:53:20.548Z,11.45
2022-10-17T08:55:52.690Z,10.73
2022-10-17T08:58:29.424Z,9.88
2022-10-17T09:01:11.923Z,11.50
2022-10-17T09:04:26.833Z,11.05
2022-10-17T09:06:59.757Z,10.52
2022-10-17T09:09:47.700Z,11.38
2022-10-17T09:12:14.330Z,10.82
2022-10-17T09:15:05.938Z,11.23
2022-10-17T09:17:43.956Z,10.80
2022-10-17T09:20:18.035Z,12.07
2022-10-17T09:23:05.370Z,11.95
2022-10-17T09:25:49.763Z,11.57
2022-10-17T09:28:27.893Z,11.25
2022-10-17T09:31:03.548Z,11.00
2022-10-17T09:33:58.954Z,10.85
2022-10-17T09:36:35.729Z,10.15
2022-10-17T09:39:17.683Z,10.80
2022-10-17T09:41:53.271Z,11.38
2022-10-17T09:44:22.943Z,9.20
2022-10-17T09:47:13.233Z,11.27
2022-10-17T09:49:42.201Z,11.00
2022-10-17T09:52:30.291Z,9.80
2022-10-17T09:54:59.473Z,10.15
2022-10-17T09:57:31.934Z,10.52
2022-10-17T10:00:04.431Z,10.52
2022-10-17T10:02:41.235Z,8.95
2022-10-17T10:05:21.112Z,10.07
2022-10-17T10:08:14.542Z,10.82
2022-10-17T10:10:43.323Z,9.85
2022-10-17T10:13:12.887Z,9.13
2022-10-17T10:15:41.717Z,9.55
2022-10-17T10:18:26.706Z,8.80
2022-10-17T10:21:15.045Z,7.95
2022-10-17T10:23:46.725Z,8.00
2022-10-17T10:26:23.914Z,8.20
2022-10-17T10:28:54.242Z,8.30
2022-10-17T10:31:30.293Z,9.00
2022-10-17T10:33:59.702Z,8.13
2022-10-17T10:36:26.465Z,7.30
2022-10-17T10:39:01.253Z,6.43
2022-10-17T10:41:46.880Z,4.38
2022-10-17T10:44:15.510Z,3.60
2022-10-17T10:46:42.201Z,4.68
2022-10-17T10:49:29.659Z,4.10
2022-10-17T10:51:58.672Z,3.55
2022-10-17T10:57:00.946Z,3.72
2022-10-17T10:59:39.528Z,3.58
2022-10-17T11:02:38.530Z,3.13
2022-10-17T11:05:05.591Z,3.38
2022-10-17T11:07:38.056Z,3.70
2022-10-17T11:10:35.477Z,3.42
2022-10-17T11:13:13.634Z,3.20
2022-10-17T11:15:51.566Z,3.78
2022-10-17T11:18:36.007Z,3.72
2022-10-17T11:21:26.584Z,3.40
2022-10-17T11:24:06.979Z,3.63
2022-10-17T11:26:43.414Z,3.58
2022-10-17T11:29:12.084Z,3.30
2022-10-17T11:31:51.034Z,3.58
2022-10-17T11:34:26.485Z,4.15
2022-10-17T11:37:15.438Z,3.25
2022-10-17T11:40:24.489Z,3.03
2022-10-17T11:42:59.802Z,3.38
2022-10-17T11:45:31.193Z,3.47
2022-10-17T11:48:14.462Z,3.47
2022-10-17T11:54:09.114Z,3.72
2022-10-17T11:57:14.631Z,2.63
2022-10-17T11:59:56.677Z,4.53
2022-10-17T12:02:40.807Z,3.40
2022-10-17T12:05:21.955Z,3.88
2022-10-17T12:07:59.615Z,3.20
2022-10-17T12:10:45.327Z,3.30
2022-10-17T12:13:36.299Z,4.30
2022-10-17T12:16:35.458Z,3.42
2022-10-17T12:19:06.341Z,3.20
2022-10-17T12:22:10.412Z,3.53
2022-10-17T12:24:38.240Z,2.78
2022-10-17T12:27:39.592Z,3.07
2022-10-17T12:30:14.919Z,3.10
2022-10-17T12:33:06.062Z,2.70
2022-10-17T12:35:38.315Z,2.60
2022-10-17T12:38:18.989Z,3.40
2022-10-17T12:40:49.104Z,3.00
2022-10-17T12:43:15.876Z,3.33
2022-10-17T12:45:54.012Z,1.90
2022-10-17T12:48:44.411Z,2.33
2022-10-17T12:51:37.402Z,2.33
2022-10-17T12:54:12.916Z,2.25
2022-10-17T12:56:47.183Z,2.05
2022-10-17T12:59:16.556Z,2.10
2022-10-17T13:01:51.423Z,2.38
2022-10-17T13:04:18.572Z,2.20
2022-10-17T13:06:55.121Z,2.08
2022-10-17T13:09:33.196Z,2.05
2022-10-17T13:12:05.081Z,2.20
2022-10-17T13:14:33.661Z,2.40
2022-10-17T13:17:13.096Z,2.00
2022-10-17T13:19:48.576Z,1.75
2022-10-17T13:22:21.390Z,1.55
2022-10-17T13:24:49.469Z,1.73
2022-10-17T13:27:29.176Z,2.03
2022-10-17T13:30:00.504Z,2.15
2022-10-17T13:32:38.202Z,1.85
2022-10-17T13:35:07.337Z,1.85
2022-10-17T13:37:35.098Z,2.08
2022-10-17T13:40:16.268Z,1.90
2022-10-17T13:42:55.392Z,1.73
2022-10-17T13:45:40.316Z,1.40
2022-10-17T13:48:18.361Z,1.85
2022-10-17T13:50:48.523Z,1.88
2022-10-17T13:53:25.679Z,1.90
2022-10-17T13:56:15.680Z,1.40
2022-10-17T13:58:48.793Z,2.55
2022-10-17T14:01:20.842Z,1.50
2022-10-17T14:04:02.134Z,1.98
2022-10-17T14:06:35.384Z,1.30
2022-10-17T14:09:05.037Z,1.60
2022-10-17T14:11:43.014Z,1.90
2022-10-17T14:14:34.549Z,2.13
2022-10-17T14:17:23.272Z,1.60
2022-10-17T14:20:26.600Z,1.67
2022-10-17T14:23:04.408Z,1.65
2022-10-17T14:25:40.813Z,2.25
2022-10-17T14:28:09.349Z,1.88
2022-10-17T14:30:56.812Z,1.20
2022-10-17T14:33:29.739Z,1.80
2022-10-17T14:36:00.343Z,1.77
2022-10-17T14:38:28.303Z,1.90
2022-10-17T14:41:42.509Z,2.08
2022-10-17T14:44:19.010Z,1.50
2022-10-17T14:46:50.902Z,1.80
2022-10-17T14:49:38.623Z,1.73
2022-10-17T14:52:18.634Z,2.47
2022-10-17T14:54:50.193Z,1.98
2022-10-17T14:57:19.359Z,1.95
2022-10-17T14:59:55.947Z,2.50
2022-10-17T15:02:27.759Z,2.60
2022-10-17T15:04:57.617Z,2.33
2022-10-17T15:07:26.545Z,2.45
2022-10-17T15:09:53.964Z,2.33
2022-10-17T15:12:23.221Z,2.38
2022-10-17T15:14:50.733Z,2.10
2022-10-17T15:17:23.696Z,2.53
2022-10-17T15:19:50.911Z,2.50
2022-10-17T15:22:20.115Z,2.53
2022-10-17T15:24:46.983Z,2.53
2022-10-17T15:27:20.593Z,2.90
2022-10-17T15:29:48.128Z,2.20
2022-10-17T15:32:15.237Z,3.20
2022-10-17T15:34:42.684Z,2.10
2022-10-17T15:37:16.748Z,2.30
2022-10-17T15:39:43.452Z,2.33
2022-10-17T15:42:12.022Z,2.70
2022-10-17T15:44:38.733Z,2.45
2022-10-17T15:47:05.963Z,2.58
2022-10-17T15:49:33.991Z,2.90
2022-10-17T15:52:00.678Z,2.95
2022-10-17T15:54:29.946Z,2.17
2022-10-17T15:56:58.110Z,3.70
2022-10-17T15:59:33.991Z,2.80
2022-10-17T16:02:00.681Z,2.72
2022-10-17T16:06:57.433Z,3.65
2022-10-17T16:11:55.523Z,3.42
2022-10-17T16:14:24.476Z,3.35
2022-10-17T16:16:51.438Z,4.43
2022-10-17T16:19:18.204Z,4.22
2022-10-17T16:21:47.611Z,4.13
2022-10-17T16:24:14.277Z,3.80
2022-10-17T16:26:41.132Z,3.97
2022-10-17T16:29:09.384Z,4.32
2022-10-17T16:31:42.540Z,4.20
2022-10-17T16:34:13.839Z,3.88
2022-10-17T16:36:43.022Z,5.00
2022-10-17T16:39:09.804Z,4.05
2022-10-17T16:41:38.335Z,4.05
2022-10-17T16:44:08.812Z,4.03
2022-10-17T16:46:37.653Z,4.03
2022-10-17T16:49:07.845Z,4.57
2022-10-17T16:51:35.934Z,4.13
2022-10-17T16:54:04.935Z,4.20
2022-10-17T16:56:32.991Z,4.55
2022-10-17T16:59:00.713Z,4.53
2022-10-17T17:01:29.343Z,4.57
2022-10-17T17:04:04.734Z,4.38
2022-10-17T17:06:31.655Z,4.20
2022-10-17T17:08:58.477Z,5.05
2022-10-17T17:11:28.784Z,5.05
2022-10-17T17:13:57.133Z,5.13
2022-10-17T17:16:30.258Z,3.47
2022-10-17T17:19:02.231Z,4.78
2022-10-17T17:21:28.992Z,5.15
2022-10-17T17:24:02.262Z,4.70
2022-10-17T17:26:31.483Z,4.05
2022-10-17T17:31:32.355Z,4.60
2022-10-17T17:34:02.101Z,4.30
2022-10-17T17:36:36.475Z,3.92
2022-10-17T17:39:05.909Z,4.40
2022-10-17T17:41:32.748Z,3.60
2022-10-17T17:44:00.881Z,4.40
2022-10-17T17:46:27.670Z,4.13
2022-10-17T17:53:58.857Z,3.88
2022-10-17T17:56:27.726Z,4.03
2022-10-17T17:59:00.882Z,4.35
2022-10-17T18:01:36.800Z,4.72
2022-10-17T18:04:04.663Z,5.30
2022-10-17T18:06:31.399Z,7.45
2022-10-17T18:08:59.119Z,6.80
2022-10-17T18:11:27.188Z,5.82
2022-10-17T18:14:00.354Z,4.75
2022-10-17T18:16:28.095Z,8.18
2022-10-17T18:18:59.461Z,6.07
2022-10-17T18:21:28.434Z,5.05
2022-10-17T18:23:57.618Z,5.72
2022-10-17T18:28:51.169Z,9.00
2022-10-17T18:31:24.105Z,9.00
2022-10-17T18:33:55.069Z,7.30
2022-10-17T18:36:26.118Z,9.13
2022-10-17T18:38:56.534Z,9.10
2022-10-17T18:41:27.014Z,7.20
2022-10-17T18:43:57.507Z,8.85
2022-10-17T18:46:28.451Z,7.38
2022-10-17T18:48:55.829Z,8.35
2022-10-17T18:51:24.107Z,8.23
2022-10-17T18:53:55.514Z,8.17
2022-10-17T18:56:23.236Z,8.57
2022-10-17T18:58:50.321Z,9.15
2022-10-17T19:01:23.343Z,8.93
2022-10-17T19:03:53.905Z,8.55
2022-10-17T19:06:22.839Z,9.10
2022-10-17T19:08:51.855Z,8.32
2022-10-17T19:11:21.638Z,9.35
2022-10-17T19:13:51.390Z,9.35
2022-10-17T19:16:18.002Z,9.93
2022-10-17T19:18:54.653Z,11.05
2022-10-17T19:21:24.473Z,8.15
2022-10-17T19:23:59.661Z,9.65
2022-10-17T19:26:28.588Z,10.38
2022-10-17T19:28:57.825Z,9.85
2022-10-17T19:31:27.249Z,10.57
2022-10-17T19:33:57.721Z,10.60
2022-10-17T19:36:32.530Z,10.02
2022-10-17T19:39:05.432Z,10.37
2022-10-17T19:41:37.178Z,10.27
2022-10-17T19:44:03.932Z,11.20
2022-10-17T19:46:34.144Z,10.15
2022-10-17T19:49:01.404Z,9.82
2022-10-17T19:51:29.117Z,10.93
2022-10-17T19:54:00.203Z,10.43
2022-10-17T19:56:28.906Z,10.85
2022-10-17T19:58:57.005Z,11.82
2022-10-17T20:01:26.079Z,11.48
2022-10-17T20:03:58.388Z,10.18
2022-10-17T20:06:25.204Z,10.88
2022-10-17T20:08:54.324Z,10.27
2022-10-17T20:11:23.466Z,10.43
2022-10-17T20:13:51.091Z,10.98
2022-10-17T20:16:25.957Z,10.23
2022-10-17T20:18:55.189Z,10.70
2022-10-17T20:23:51.096Z,10.45
2022-10-17T20:29:12.003Z,9.68
2022-10-17T20:31:39.956Z,10.75
2022-10-17T20:34:06.854Z,10.65
2022-10-17T20:36:36.975Z,11.07
2022-10-17T20:39:07.290Z,9.93
2022-10-17T20:41:36.570Z,10.30
2022-10-17T20:46:37.365Z,10.45
2022-10-17T20:49:06.540Z,10.48
2022-10-17T20:51:36.195Z,10.50
2022-10-17T20:54:03.765Z,10.60
2022-10-17T20:56:36.186Z,11.30
2022-10-17T20:59:09.679Z,11.75
2022-10-17T21:01:36.529Z,10.85
2022-10-17T21:04:27.122Z,10.57
2022-10-17T21:06:52.157Z,11.30
2022-10-17T21:09:21.874Z,11.00
2022-10-17T21:11:55.087Z,13.63
2022-10-17T21:14:25.477Z,12.80
2022-10-17T21:16:52.343Z,12.80
2022-10-17T21:19:19.178Z,12.40
2022-10-17T21:21:48.688Z,13.45
2022-10-17T21:24:18.110Z,12.40
2022-10-17T21:26:46.003Z,12.85
2022-10-17T21:29:15.615Z,13.20
2022-10-17T21:31:46.537Z,13.23
2022-10-17T21:34:17.590Z,12.60
2022-10-17T21:36:47.418Z,12.63
2022-10-17T21:39:19.688Z,13.70
2022-10-17T21:41:46.410Z,13.32
2022-10-17T21:44:22.086Z,13.30
2022-10-17T21:46:49.812Z,13.75
2022-10-17T21:49:19.415Z,13.55
2022-10-17T21:51:47.617Z,13.88
2022-10-17T21:54:15.037Z,13.55
2022-10-17T21:56:46.934Z,13.25
2022-10-17T21:59:16.146Z,13.55
2022-10-17T22:01:47.124Z,13.35
2022-10-17T22:04:16.853Z,12.68
2022-10-17T22:06:45.066Z,13.43
2022-10-17T22:09:18.339Z,13.18
2022-10-17T22:11:47.305Z,13.10
2022-10-17T22:14:19.591Z,12.63
2022-10-17T22:19:20.705Z,13.95
2022-10-17T22:21:54.477Z,14.45
2022-10-17T22:26:56.051Z,14.20
2022-10-17T22:29:24.899Z,14.05
2022-10-17T22:31:51.651Z,15.90
2022-10-17T22:34:23.178Z,14.90
2022-10-17T22:36:50.062Z,14.13
2022-10-17T22:39:16.891Z,14.57
2022-10-17T22:41:43.628Z,15.07
2022-10-17T22:44:10.801Z,14.65
2022-10-17T22:46:37.541Z,15.85
2022-10-17T22:49:04.280Z,13.80
2022-10-17T22:51:31.006Z,14.70
2022-10-17T22:53:57.695Z,14.38
2022-10-17T22:56:24.398Z,14.20
2022-10-17T22:58:51.560Z,13.40
2022-10-17T23:01:24.378Z,14.07
2022-10-17T23:03:52.142Z,14.02
2022-10-17T23:06:21.780Z,13.65
2022-10-17T23:08:49.035Z,14.25
2022-10-17T23:11:18.107Z,14.07
2022-10-17T23:13:45.814Z,15.40
2022-10-17T23:16:15.138Z,14.07
2022-10-17T23:18:44.255Z,14.13
2022-10-17T23:21:13.166Z,13.93
2022-10-17T23:23:39.858Z,14.27
2022-10-17T23:26:12.071Z,14.05
2022-10-17T23:28:39.282Z,14.52
2022-10-17T23:31:19.263Z,14.73
2022-10-17T23:33:47.469Z,13.90
2022-10-17T23:36:20.686Z,13.80
2022-10-17T23:38:48.130Z,14.18
2022-10-17T23:41:17.590Z,14.38
2022-10-17T23:43:46.541Z,13.38
2022-10-17T23:46:13.286Z,14.25
2022-10-17T23:48:40.435Z,13.68
2022-10-17T23:51:10.203Z,14.07
2022-10-17T23:53:40.608Z,13.05
2022-10-17T23:56:11.278Z,14.38
2022-10-17T23:58:38.836Z,14.02
